X  Sluiten METAR luchtvaart weer gegevens      EDDS Stuttgart Airport
Temperatuur
12°C Temperatuur
8°C Dauwpunt
77% Vochtigheid



Wind
3 KM/U
2 MPH
1 M/S
2 KTS



Kalm
Noord
Huidig weer

Grotendeels bewolkt Grotendeels bewolkt
Luchtdruk 1025.92 (hPa) - 30.3 (inHg)
Zicht 6.2 (mijl) - 10 (km)
Vliegveld
Vliegveld code EDDS

Locatie : Stuttgart Airport
Afstand: 10 (km)

Metar:
EDDS 301850Z VRB02KT 9999 BKN032 12/08 Q1026 NOSIG

Tijd: 30-10-2020 19:50 CET